Time;durP1;ratioP1;P1;durP2;ratioP2;P2;SDS_P1;SDS_P2;PMS_P1;PMS_P2;Temp;Humidity;BMP_temperature;BMP_pressure;BME280_temperature;BME280_humidity;BME280_pressure;Samples;Min_cycle;Max_cycle;Signal;HPM_P1;HPM_P2
2021/08/31 00:00:00;;;;;;;13.98;9.32;;;15.60;99.90;;;;;;5049561;28;20041;-82
2021/08/31 00:02:27;;;;;;;11.95;8.27;;;15.60;99.90;;;;;;5049866;28;20046;-82
2021/08/31 00:04:54;;;;;;;12.00;8.40;;;15.60;99.90;;;;;;5040389;28;20037;-81
2021/08/31 00:07:21;;;;;;;14.38;8.73;;;15.60;99.90;;;;;;5049540;28;20406;-81
2021/08/31 00:09:48;;;;;;;14.18;9.25;;;15.60;99.90;;;;;;5052030;28;20045;-81
2021/08/31 00:12:15;;;;;;;12.88;9.27;;;15.60;99.90;;;;;;5052230;28;20059;-81
2021/08/31 00:14:43;;;;;;;10.18;7.60;;;15.50;99.90;;;;;;5053408;28;20051;-81
2021/08/31 00:17:13;;;;;;;12.30;8.35;;;15.50;99.90;;;;;;5052472;28;20043;-81
2021/08/31 00:19:40;;;;;;;13.88;8.32;;;15.50;99.90;;;;;;5053029;28;20410;-81
2021/08/31 00:22:07;;;;;;;13.27;8.50;;;15.50;99.90;;;;;;5036571;28;20083;-81
2021/08/31 00:24:34;;;;;;;12.35;8.10;;;15.50;99.90;;;;;;5049334;28;20037;-81
2021/08/31 00:27:01;;;;;;;12.93;8.52;;;15.50;99.90;;;;;;5041092;28;20044;-81
2021/08/31 00:29:28;;;;;;;13.23;9.00;;;15.50;99.90;;;;;;5041726;28;20045;-81
2021/08/31 00:31:55;;;;;;;13.93;8.98;;;15.50;99.90;;;;;;5034434;28;20053;-81
2021/08/31 00:34:23;;;;;;;13.35;8.00;;;15.50;99.90;;;;;;5049320;28;20053;-81
2021/08/31 00:36:50;;;;;;;12.15;8.32;;;15.60;99.90;;;;;;5039624;28;20045;-81
2021/08/31 00:39:19;;;;;;;14.23;9.57;;;15.60;99.90;;;;;;5044066;28;20045;-81
2021/08/31 00:41:47;;;;;;;12.70;9.10;;;15.60;99.90;;;;;;5039207;28;20136;-81
2021/08/31 00:44:21;;;;;;;13.25;9.23;;;15.50;99.90;;;;;;5049309;28;20049;-81
2021/08/31 00:46:49;;;;;;;13.02;9.10;;;15.50;99.90;;;;;;5038918;28;20048;-80
2021/08/31 00:49:16;;;;;;;11.80;8.52;;;15.50;99.90;;;;;;5052638;28;20489;-80
2021/08/31 00:51:45;;;;;;;13.73;9.15;;;15.50;99.90;;;;;;5039370;28;20049;-81
2021/08/31 00:54:14;;;;;;;13.13;9.27;;;15.50;99.90;;;;;;5041635;28;20057;-81
2021/08/31 00:56:41;;;;;;;14.50;9.27;;;15.50;99.90;;;;;;5033627;28;20509;-81
2021/08/31 00:59:08;;;;;;;13.98;9.32;;;15.50;99.90;;;;;;5048148;28;20072;-81
2021/08/31 01:01:35;;;;;;;13.85;9.23;;;15.50;99.90;;;;;;5040397;28;20041;-81
2021/08/31 01:04:02;;;;;;;12.95;9.88;;;15.50;99.90;;;;;;5040922;28;20045;-81
2021/08/31 01:06:29;;;;;;;12.80;9.60;;;15.50;99.90;;;;;;5044563;28;20048;-81
2021/08/31 01:08:58;;;;;;;13.85;9.23;;;15.40;99.90;;;;;;5036323;28;20047;-81
2021/08/31 01:11:26;;;;;;;14.57;9.55;;;15.40;99.90;;;;;;5048846;28;20416;-81
2021/08/31 01:13:53;;;;;;;14.13;8.85;;;15.40;99.90;;;;;;5039396;28;20045;-81
2021/08/31 01:16:21;;;;;;;11.48;8.10;;;15.40;99.90;;;;;;5038920;28;20067;-80
2021/08/31 01:18:48;;;;;;;12.80;8.55;;;15.40;99.90;;;;;;5052841;28;20144;-81
2021/08/31 01:21:15;;;;;;;12.18;8.15;;;15.40;99.90;;;;;;5035838;28;20100;-81
2021/08/31 01:23:46;;;;;;;12.48;8.52;;;15.40;99.90;;;;;;5047176;28;20522;-81
2021/08/31 01:26:15;;;;;;;12.30;7.93;;;15.40;99.90;;;;;;5040228;28;20037;-81
2021/08/31 01:28:42;;;;;;;11.43;7.93;;;15.40;99.90;;;;;;5043620;28;20052;-81
2021/08/31 01:31:09;;;;;;;13.95;8.98;;;15.40;99.90;;;;;;5043728;28;20037;-81
2021/08/31 01:33:36;;;;;;;14.27;9.32;;;15.40;99.90;;;;;;5045251;28;20052;-81
2021/08/31 01:36:19;;;;;;;11.52;8.52;;;15.40;99.90;;;;;;5036021;28;20081;-81
2021/08/31 01:38:47;;;;;;;12.35;8.68;;;15.40;99.90;;;;;;5038171;28;20081;-81
2021/08/31 01:41:16;;;;;;;11.07;8.13;;;15.40;99.90;;;;;;5049187;28;20045;-81
2021/08/31 01:43:43;;;;;;;14.88;8.85;;;15.40;99.90;;;;;;5039823;28;20041;-81
2021/08/31 01:46:11;;;;;;;12.90;8.60;;;15.40;99.90;;;;;;5048693;28;20049;-81
2021/08/31 01:48:38;;;;;;;12.75;7.32;;;15.40;99.90;;;;;;5037519;28;20055;-81
2021/08/31 01:51:06;;;;;;;12.25;7.55;;;15.40;99.90;;;;;;5035507;28;20137;-81
2021/08/31 01:53:34;;;;;;;10.88;7.32;;;15.30;99.90;;;;;;5036269;28;20045;-81
2021/08/31 01:56:01;;;;;;;9.57;7.00;;;15.40;99.90;;;;;;5050859;28;20049;-80
2021/08/31 01:58:29;;;;;;;10.63;7.45;;;15.40;99.90;;;;;;5043590;28;20059;-80
2021/08/31 02:00:56;;;;;;;9.65;6.97;;;15.40;99.90;;;;;;5043440;28;20129;-80
2021/08/31 02:03:23;;;;;;;11.15;7.50;;;15.40;99.90;;;;;;5048465;28;20486;-81
2021/08/31 02:05:50;;;;;;;9.70;6.65;;;15.40;99.90;;;;;;5038456;28;20051;-80
2021/08/31 02:08:18;;;;;;;11.25;8.07;;;15.50;99.90;;;;;;5041967;28;20406;-81
2021/08/31 02:10:46;;;;;;;10.30;6.85;;;15.50;99.90;;;;;;5033318;28;20045;-81
2021/08/31 02:13:13;;;;;;;9.70;7.10;;;15.50;99.90;;;;;;5048405;28;20136;-81
2021/08/31 02:15:41;;;;;;;9.15;6.25;;;15.50;99.90;;;;;;5037084;28;20128;-81
2021/08/31 02:18:09;;;;;;;9.18;6.57;;;15.50;99.90;;;;;;5043280;28;20037;-81
2021/08/31 02:20:36;;;;;;;9.98;7.05;;;15.50;99.90;;;;;;5046974;28;20047;-82
2021/08/31 02:23:04;;;;;;;8.88;6.13;;;15.50;99.90;;;;;;5038354;28;20045;-82
2021/08/31 02:25:31;;;;;;;10.73;6.32;;;15.50;99.90;;;;;;5039333;28;20124;-81
2021/08/31 02:27:58;;;;;;;10.70;6.47;;;15.50;99.90;;;;;;5047993;28;20120;-81
2021/08/31 02:30:25;;;;;;;9.55;6.97;;;15.50;99.90;;;;;;5051645;28;20045;-81
2021/08/31 02:32:56;;;;;;;9.80;7.03;;;15.50;99.90;;;;;;5041890;28;20136;-81
2021/08/31 02:35:23;;;;;;;9.40;6.97;;;15.50;99.90;;;;;;5038881;28;20522;-81
2021/08/31 02:37:50;;;;;;;9.48;7.00;;;15.50;99.90;;;;;;5048946;28;20052;-81
2021/08/31 02:40:17;;;;;;;10.40;7.20;;;15.50;99.90;;;;;;5045488;28;20231;-81
2021/08/31 02:42:44;;;;;;;10.07;7.18;;;15.50;99.90;;;;;;5041367;28;20388;-82
2021/08/31 02:45:12;;;;;;;9.57;6.72;;;15.50;99.90;;;;;;5051032;28;20490;-82
2021/08/31 02:47:39;;;;;;;10.32;7.00;;;15.50;99.90;;;;;;5047879;28;20045;-82
2021/08/31 02:50:09;;;;;;;10.23;7.70;;;15.50;99.90;;;;;;5038204;28;20509;-81
2021/08/31 02:52:36;;;;;;;11.57;7.85;;;15.50;99.90;;;;;;5050773;28;20487;-81
2021/08/31 02:55:03;;;;;;;10.68;7.30;;;15.50;99.90;;;;;;5042850;28;20041;-82
2021/08/31 02:57:30;;;;;;;10.18;6.90;;;15.50;99.90;;;;;;5042965;28;20776;-82
2021/08/31 03:00:00;;;;;;;11.82;7.60;;;15.50;99.90;;;;;;5050174;28;20041;-82
2021/08/31 03:02:27;;;;;;;10.50;7.00;;;15.50;99.90;;;;;;5036686;28;20183;-83
2021/08/31 03:04:54;;;;;;;11.38;7.47;;;15.50;99.90;;;;;;5044487;28;20045;-81
2021/08/31 03:07:22;;;;;;;11.13;7.50;;;15.40;99.90;;;;;;5049139;28;20131;-81
2021/08/31 03:09:49;;;;;;;11.30;7.45;;;15.50;99.90;;;;;;5037921;28;20052;-80
2021/08/31 03:12:16;;;;;;;10.00;6.95;;;15.50;99.90;;;;;;5042750;28;20446;-80
2021/08/31 03:14:43;;;;;;;9.98;7.10;;;15.50;99.90;;;;;;5045665;28;20048;-80
2021/08/31 03:17:11;;;;;;;10.95;8.00;;;15.40;99.90;;;;;;5043270;28;20466;-80
2021/08/31 03:19:39;;;;;;;11.38;7.97;;;15.40;99.90;;;;;;5044837;28;20049;-81
2021/08/31 03:22:09;;;;;;;14.38;8.68;;;15.40;99.90;;;;;;5035244;28;20129;-81
2021/08/31 03:24:38;;;;;;;10.63;7.88;;;15.50;99.90;;;;;;5047711;28;20041;-80
2021/08/31 03:27:06;;;;;;;12.40;7.88;;;15.40;99.90;;;;;;5040339;28;20069;-80
2021/08/31 03:29:33;;;;;;;12.52;8.38;;;15.40;99.90;;;;;;5051904;28;20060;-80
2021/08/31 03:32:00;;;;;;;11.02;7.85;;;15.40;99.90;;;;;;5050984;28;20053;-80
2021/08/31 03:34:27;;;;;;;12.45;8.73;;;15.40;99.90;;;;;;5051672;28;20049;-80
2021/08/31 03:36:54;;;;;;;11.00;8.43;;;15.40;99.90;;;;;;5051441;28;20055;-81
2021/08/31 03:39:21;;;;;;;12.43;7.97;;;15.40;99.90;;;;;;5034596;28;20064;-81
2021/08/31 03:41:49;;;;;;;12.52;8.80;;;15.40;99.90;;;;;;5045648;28;20045;-81
2021/08/31 03:44:17;;;;;;;13.95;8.30;;;15.40;99.90;;;;;;5047919;28;20049;-83
2021/08/31 03:46:44;;;;;;;11.40;8.43;;;15.40;99.90;;;;;;5037025;28;20127;-84
2021/08/31 03:49:11;;;;;;;12.23;8.68;;;15.40;99.90;;;;;;5042504;28;20458;-83
2021/08/31 03:51:38;;;;;;;13.10;9.35;;;15.30;99.90;;;;;;5046889;28;20055;-84
2021/08/31 03:54:05;;;;;;;13.35;9.07;;;15.40;99.90;;;;;;5039919;28;20047;-84
2021/08/31 03:56:32;;;;;;;13.15;9.15;;;15.30;99.90;;;;;;5039333;28;20059;-85
2021/08/31 03:59:00;;;;;;;13.77;9.40;;;15.30;99.90;;;;;;5039662;28;20038;-84
2021/08/31 04:01:27;;;;;;;14.23;8.95;;;15.30;99.90;;;;;;5042265;28;20044;-85
2021/08/31 04:03:54;;;;;;;13.55;9.60;;;15.20;99.90;;;;;;5052234;28;20486;-85
2021/08/31 04:06:21;;;;;;;13.95;9.43;;;15.20;99.90;;;;;;5041415;28;20051;-85
2021/08/31 04:08:48;;;;;;;13.70;9.88;;;15.20;99.90;;;;;;5039510;28;20129;-84
2021/08/31 04:11:15;;;;;;;13.38;9.35;;;15.20;99.90;;;;;;5044126;28;20048;-82
2021/08/31 04:13:42;;;;;;;14.35;10.15;;;15.20;99.90;;;;;;5043035;28;20055;-80
2021/08/31 04:16:11;;;;;;;14.88;9.80;;;15.20;99.90;;;;;;5042584;28;20418;-81
2021/08/31 04:18:38;;;;;;;14.20;9.27;;;15.20;99.90;;;;;;5051988;28;20048;-82
2021/08/31 04:21:05;;;;;;;15.45;9.65;;;15.20;99.90;;;;;;5036872;28;20045;-83
2021/08/31 04:23:32;;;;;;;15.05;10.05;;;15.10;99.90;;;;;;5034453;28;20055;-82
2021/08/31 04:25:59;;;;;;;14.38;10.20;;;15.10;99.90;;;;;;5040482;28;20043;-83
2021/08/31 04:28:26;;;;;;;15.32;9.68;;;15.20;99.90;;;;;;5052294;28;20047;-82
2021/08/31 04:30:53;;;;;;;12.27;8.85;;;15.10;99.90;;;;;;5053330;28;20045;-83
2021/08/31 04:33:21;;;;;;;12.15;8.77;;;15.10;99.90;;;;;;5053283;28;20410;-83
2021/08/31 04:35:48;;;;;;;12.98;8.90;;;15.10;99.90;;;;;;5053163;28;20045;-82
2021/08/31 04:38:15;;;;;;;13.07;9.13;;;15.10;99.90;;;;;;5053076;28;20512;-83
2021/08/31 04:40:42;;;;;;;11.65;8.45;;;15.10;99.90;;;;;;5053320;28;20080;-81
2021/08/31 04:43:10;;;;;;;16.10;10.15;;;15.20;99.90;;;;;;5053033;28;20063;-82
2021/08/31 04:45:36;;;;;;;15.18;9.27;;;15.20;99.90;;;;;;5053133;28;20132;-82
2021/08/31 04:48:04;;;;;;;12.98;8.95;;;15.20;99.90;;;;;;5053052;28;20136;-82
2021/08/31 04:50:32;;;;;;;13.23;8.80;;;15.20;99.90;;;;;;5052877;28;20391;-83
2021/08/31 04:52:59;;;;;;;14.65;9.73;;;15.20;99.90;;;;;;5053195;28;20051;-82
2021/08/31 04:55:27;;;;;;;12.98;9.30;;;15.20;99.90;;;;;;5053210;28;20067;-83
2021/08/31 04:57:53;;;;;;;14.18;9.25;;;15.20;99.90;;;;;;5053072;28;20041;-83
2021/08/31 05:00:21;;;;;;;11.98;8.80;;;15.20;99.90;;;;;;5052940;28;20055;-83
2021/08/31 05:02:49;;;;;;;12.65;8.32;;;15.20;99.90;;;;;;5052764;28;20045;-82
2021/08/31 05:05:16;;;;;;;13.45;9.02;;;15.20;99.90;;;;;;5052820;28;20052;-83
2021/08/31 05:07:45;;;;;;;12.85;8.95;;;15.20;99.90;;;;;;5052959;28;20414;-83
2021/08/31 05:10:12;;;;;;;14.23;9.32;;;15.20;99.90;;;;;;5052706;28;20051;-83
2021/08/31 05:12:39;;;;;;;13.45;8.57;;;15.20;99.90;;;;;;5052200;28;20495;-83
2021/08/31 05:15:08;;;;;;;14.00;9.80;;;15.30;99.90;;;;;;5052834;28;20056;-83
2021/08/31 05:17:36;;;;;;;14.60;9.18;;;15.30;99.90;;;;;;5052645;28;20060;-83
2021/08/31 05:20:04;;;;;;;14.02;9.63;;;15.30;99.90;;;;;;5052926;28;20051;-82
2021/08/31 05:22:32;;;;;;;14.15;9.73;;;15.30;99.90;;;;;;5052875;28;20059;-83
2021/08/31 05:25:01;;;;;;;12.80;8.88;;;15.30;99.90;;;;;;5052645;28;20049;-83
2021/08/31 05:27:29;;;;;;;15.07;10.35;;;15.30;99.90;;;;;;5052752;28;20122;-83
2021/08/31 05:29:56;;;;;;;14.15;9.02;;;15.30;99.90;;;;;;5052487;28;20051;-83
2021/08/31 05:32:23;;;;;;;14.02;9.57;;;15.30;99.90;;;;;;5052570;28;20132;-83
2021/08/31 05:34:50;;;;;;;14.10;9.15;;;15.30;99.90;;;;;;5052619;28;20059;-83
2021/08/31 05:37:17;;;;;;;13.88;10.13;;;15.30;99.90;;;;;;5052477;28;20497;-83
2021/08/31 05:39:44;;;;;;;13.98;9.43;;;15.20;99.90;;;;;;5052392;28;20055;-83
2021/08/31 05:42:13;;;;;;;15.98;10.30;;;15.30;99.90;;;;;;5052486;28;20474;-83
2021/08/31 05:44:41;;;;;;;14.85;10.23;;;15.30;99.90;;;;;;5052278;28;20084;-83
2021/08/31 05:47:09;;;;;;;13.75;9.50;;;15.30;99.90;;;;;;5052307;28;20055;-83
2021/08/31 05:49:36;;;;;;;15.77;10.55;;;15.30;99.90;;;;;;5052518;28;20407;-83
2021/08/31 05:52:05;;;;;;;14.45;9.60;;;15.30;99.90;;;;;;5052476;28;20053;-84
2021/08/31 05:54:32;;;;;;;13.90;9.65;;;15.30;99.90;;;;;;5053303;28;20098;-83
2021/08/31 05:57:06;;;;;;;14.20;9.65;;;15.30;99.90;;;;;;5056185;28;20057;-82
2021/08/31 05:59:34;;;;;;;16.58;10.07;;;15.40;99.90;;;;;;5056371;28;20053;-83
2021/08/31 06:02:01;;;;;;;13.23;8.70;;;15.40;99.90;;;;;;5056205;28;20051;-83
2021/08/31 06:04:28;;;;;;;14.02;9.25;;;15.30;99.90;;;;;;5055916;28;20055;-83
2021/08/31 06:06:55;;;;;;;13.18;9.20;;;15.40;99.90;;;;;;5056029;28;20060;-83
2021/08/31 06:09:22;;;;;;;15.10;9.57;;;15.40;99.90;;;;;;5055909;28;20051;-83
2021/08/31 06:11:51;;;;;;;14.50;9.68;;;15.40;99.90;;;;;;5055747;28;20427;-83
2021/08/31 06:14:18;;;;;;;12.80;8.85;;;15.30;99.90;;;;;;5055906;28;20056;-83
2021/08/31 06:16:47;;;;;;;12.45;9.10;;;15.30;99.90;;;;;;5055979;28;20048;-83
2021/08/31 06:19:14;;;;;;;13.23;9.18;;;15.30;99.90;;;;;;5055811;28;20128;-83
2021/08/31 06:21:41;;;;;;;13.95;9.52;;;15.40;99.90;;;;;;5055639;28;20498;-83
2021/08/31 06:24:08;;;;;;;12.75;8.90;;;15.40;99.90;;;;;;5055544;28;20449;-83
2021/08/31 06:26:35;;;;;;;13.45;9.40;;;15.40;99.90;;;;;;5055913;28;20045;-83
2021/08/31 06:29:02;;;;;;;14.57;9.60;;;15.40;99.90;;;;;;5055541;28;20045;-83
2021/08/31 06:31:29;;;;;;;13.57;9.60;;;15.40;99.90;;;;;;5055781;28;20405;-83
2021/08/31 06:33:57;;;;;;;15.55;10.63;;;15.40;99.90;;;;;;5055562;28;20136;-83
2021/08/31 06:36:24;;;;;;;14.70;9.00;;;15.40;99.90;;;;;;5055438;28;20045;-84
2021/08/31 06:38:51;;;;;;;15.07;9.48;;;15.40;99.90;;;;;;5055120;28;20410;-84
2021/08/31 06:41:18;;;;;;;13.80;9.50;;;15.30;99.90;;;;;;5055449;28;20059;-83
2021/08/31 06:43:46;;;;;;;13.95;9.75;;;15.30;99.90;;;;;;5055445;28;20053;-84
2021/08/31 06:46:14;;;;;;;13.93;9.15;;;15.40;99.90;;;;;;5055394;28;20091;-83
2021/08/31 06:48:42;;;;;;;14.25;9.13;;;15.40;99.90;;;;;;5055193;28;20049;-83
2021/08/31 06:51:12;;;;;;;12.55;8.88;;;15.40;99.90;;;;;;5055137;28;20041;-83
2021/08/31 06:53:40;;;;;;;13.40;8.48;;;15.50;99.90;;;;;;5055077;28;20053;-83
2021/08/31 06:56:08;;;;;;;12.40;9.20;;;15.60;99.90;;;;;;5054867;28;20487;-83
2021/08/31 06:58:35;;;;;;;13.48;9.18;;;15.50;99.90;;;;;;5055105;28;20045;-83
2021/08/31 07:01:02;;;;;;;13.70;9.07;;;15.60;99.90;;;;;;5054988;28;20429;-84
2021/08/31 07:03:29;;;;;;;13.88;9.75;;;15.70;99.90;;;;;;5054922;28;20049;-84
2021/08/31 07:05:56;;;;;;;12.80;8.82;;;15.70;99.90;;;;;;5054668;28;20138;-83
2021/08/31 07:08:25;;;;;;;12.57;8.25;;;15.70;99.90;;;;;;5055103;28;20044;-84
2021/08/31 07:10:52;;;;;;;13.88;9.00;;;15.70;99.90;;;;;;5054982;28;20621;-84
2021/08/31 07:13:19;;;;;;;12.13;8.90;;;15.70;99.90;;;;;;5054734;28;20490;-83
2021/08/31 07:15:46;;;;;;;12.20;7.88;;;15.80;99.90;;;;;;5054871;28;20418;-84
2021/08/31 07:18:13;;;;;;;12.55;7.38;;;15.80;99.90;;;;;;5054708;28;20047;-83
2021/08/31 07:20:40;;;;;;;12.45;8.85;;;15.80;99.90;;;;;;5054502;28;20059;-83
2021/08/31 07:23:08;;;;;;;11.00;7.65;;;15.80;99.90;;;;;;5054509;28;20056;-83
2021/08/31 07:25:37;;;;;;;11.40;7.75;;;15.80;99.90;;;;;;5054445;28;20048;-83
2021/08/31 07:28:04;;;;;;;10.23;7.45;;;15.90;99.90;;;;;;5054505;28;20140;-83
2021/08/31 07:30:32;;;;;;;10.00;6.95;;;15.90;99.90;;;;;;5054478;28;20053;-84
2021/08/31 07:32:59;;;;;;;13.88;7.63;;;15.90;99.90;;;;;;5054317;28;20051;-83
2021/08/31 07:35:26;;;;;;;10.25;7.18;;;15.90;99.90;;;;;;5054615;28;20051;-83
2021/08/31 07:37:53;;;;;;;10.70;7.10;;;16.00;99.90;;;;;;5054275;28;20148;-83
2021/08/31 07:40:20;;;;;;;9.77;6.88;;;16.00;99.90;;;;;;5054376;28;20047;-83
2021/08/31 07:42:49;;;;;;;10.38;6.53;;;16.00;99.90;;;;;;5054211;28;20063;-84
2021/08/31 07:45:16;;;;;;;9.57;6.43;;;16.10;99.90;;;;;;5054098;28;20059;-83
2021/08/31 07:47:43;;;;;;;7.75;5.43;;;16.10;99.90;;;;;;5054092;28;20049;-83
2021/08/31 07:50:11;;;;;;;8.40;6.22;;;16.20;99.90;;;;;;5053939;28;20059;-83
2021/08/31 07:52:38;;;;;;;8.85;6.15;;;16.30;99.90;;;;;;5054157;28;20048;-83
2021/08/31 07:55:08;;;;;;;8.25;5.72;;;16.30;99.90;;;;;;5054056;28;20041;-83
2021/08/31 07:57:36;;;;;;;8.75;5.72;;;16.40;99.90;;;;;;5054067;28;20041;-83
2021/08/31 08:00:06;;;;;;;9.40;6.00;;;16.60;99.90;;;;;;5053754;28;20136;-83
2021/08/31 08:02:34;;;;;;;7.53;5.47;;;16.60;99.90;;;;;;5053848;28;20490;-83
2021/08/31 08:05:02;;;;;;;7.90;5.38;;;16.70;99.90;;;;;;5053788;28;20045;-83
2021/08/31 08:07:29;;;;;;;7.90;5.40;;;16.80;99.90;;;;;;5053799;28;20045;-84
2021/08/31 08:09:56;;;;;;;7.35;5.25;;;16.90;99.90;;;;;;5053526;28;20475;-83
2021/08/31 08:12:24;;;;;;;8.43;5.45;;;16.90;99.90;;;;;;5053569;28;20047;-83
2021/08/31 08:14:51;;;;;;;7.47;4.80;;;17.00;99.90;;;;;;5053634;28;20140;-84
2021/08/31 08:17:21;;;;;;;9.13;5.30;;;17.00;99.90;;;;;;5053295;28;20077;-84
2021/08/31 08:19:48;;;;;;;7.80;5.20;;;17.10;99.90;;;;;;5053569;28;20045;-83
2021/08/31 08:22:16;;;;;;;7.75;5.20;;;17.10;99.90;;;;;;5053356;28;20593;-84
2021/08/31 08:24:43;;;;;;;7.53;5.00;;;17.20;99.90;;;;;;5053362;28;20049;-83
2021/08/31 08:27:11;;;;;;;6.90;4.57;;;17.20;99.90;;;;;;5053325;28;20486;-83
2021/08/31 08:29:38;;;;;;;9.43;4.93;;;17.20;99.90;;;;;;5053489;28;20051;-83
2021/08/31 08:32:07;;;;;;;7.22;4.53;;;17.30;99.90;;;;;;5053339;28;20055;-83
2021/08/31 08:34:37;;;;;;;6.47;4.32;;;17.30;99.90;;;;;;5053105;28;20486;-83
2021/08/31 08:37:05;;;;;;;6.38;4.10;;;17.30;99.90;;;;;;5053075;28;20047;-83
2021/08/31 08:39:33;;;;;;;6.57;4.15;;;17.40;99.90;;;;;;5052770;28;20057;-83
2021/08/31 08:42:01;;;;;;;6.82;4.15;;;17.50;99.90;;;;;;5053242;28;20049;-83
2021/08/31 08:44:28;;;;;;;7.93;4.50;;;17.50;99.90;;;;;;5053057;28;20045;-83
2021/08/31 08:46:55;;;;;;;6.22;4.38;;;17.50;99.90;;;;;;5053033;28;20051;-83
2021/08/31 08:49:23;;;;;;;7.13;4.05;;;17.60;99.90;;;;;;5053152;28;20059;-83
2021/08/31 08:51:55;;;;;;;8.23;5.40;;;17.60;99.90;;;;;;5052928;28;20409;-83
2021/08/31 08:54:23;;;;;;;7.30;4.97;;;17.50;99.90;;;;;;5052949;28;20068;-83
2021/08/31 08:56:50;;;;;;;7.72;4.80;;;17.50;99.90;;;;;;5052802;28;20509;-83
2021/08/31 08:59:18;;;;;;;10.13;5.57;;;17.50;99.90;;;;;;5052980;28;20049;-83
2021/08/31 09:01:48;;;;;;;8.15;5.32;;;17.40;99.90;;;;;;5052609;28;20478;-83
2021/08/31 09:04:17;;;;;;;8.20;5.47;;;17.40;99.90;;;;;;5052772;28;20045;-83
2021/08/31 09:06:45;;;;;;;7.95;5.50;;;17.30;99.90;;;;;;5052678;28;20054;-83
2021/08/31 09:09:13;;;;;;;7.57;5.13;;;17.40;99.90;;;;;;5052826;28;20461;-83
2021/08/31 09:11:46;;;;;;;6.55;4.72;;;17.30;99.90;;;;;;5052619;28;20402;-83
2021/08/31 09:14:25;;;;;;;7.85;4.72;;;17.40;99.90;;;;;;5052770;28;20099;-83
2021/08/31 09:16:54;;;;;;;8.43;5.30;;;17.40;99.90;;;;;;5052738;28;20068;-83
2021/08/31 09:19:31;;;;;;;8.02;4.95;;;17.40;99.90;;;;;;5052464;28;20045;-83
2021/08/31 09:22:15;;;;;;;7.07;4.80;;;17.50;99.90;;;;;;5052704;28;20044;-83
2021/08/31 09:25:00;;;;;;;7.20;4.63;;;17.50;99.90;;;;;;5052894;28;20451;-83
2021/08/31 09:27:35;;;;;;;9.68;4.72;;;17.60;99.90;;;;;;5052550;28;20048;-83
2021/08/31 09:30:17;;;;;;;8.27;5.13;;;17.60;99.90;;;;;;5054451;28;20051;-83
2021/08/31 09:33:01;;;;;;;9.27;5.28;;;17.70;99.90;;;;;;5056665;28;20048;-83
2021/08/31 09:35:31;;;;;;;9.33;5.50;;;17.70;99.90;;;;;;5056460;28;20084;-83
2021/08/31 09:38:00;;;;;;;9.55;6.38;;;17.70;99.90;;;;;;5056284;28;20298;-83
2021/08/31 09:40:31;;;;;;;8.70;5.43;;;17.70;99.90;;;;;;5056512;28;20140;-83
2021/08/31 09:43:03;;;;;;;7.30;4.85;;;17.60;99.90;;;;;;5056337;28;20083;-83
2021/08/31 09:45:34;;;;;;;8.68;5.32;;;17.70;99.90;;;;;;5056337;28;20060;-83
2021/08/31 09:48:02;;;;;;;7.90;5.32;;;17.70;99.90;;;;;;5056173;28;20051;-83
2021/08/31 09:50:37;;;;;;;8.00;4.78;;;17.80;99.90;;;;;;5056234;28;20049;-83
2021/08/31 09:53:12;;;;;;;6.40;4.60;;;17.80;99.90;;;;;;5056607;28;20049;-83
2021/08/31 09:55:43;;;;;;;8.70;4.68;;;17.90;99.90;;;;;;5056431;28;20087;-83
2021/08/31 09:58:21;;;;;;;7.50;4.78;;;18.00;99.90;;;;;;5056175;28;20041;-83
2021/08/31 10:00:50;;;;;;;6.40;4.43;;;18.00;99.90;;;;;;5055861;28;20053;-83
2021/08/31 10:03:18;;;;;;;6.13;4.00;;;18.10;99.90;;;;;;5056150;28;20490;-84
2021/08/31 10:05:47;;;;;;;7.00;4.57;;;18.20;99.90;;;;;;5056438;28;20055;-84
2021/08/31 10:08:16;;;;;;;6.05;4.20;;;18.20;99.90;;;;;;5056039;28;20048;-83
2021/08/31 10:10:47;;;;;;;6.50;4.20;;;18.30;99.90;;;;;;5055853;28;20052;-83
2021/08/31 10:13:17;;;;;;;7.95;4.55;;;18.30;99.90;;;;;;5053572;28;20581;-83
2021/08/31 10:15:47;;;;;;;7.25;4.70;;;18.30;99.90;;;;;;5053587;28;20102;-83
2021/08/31 10:18:18;;;;;;;6.07;4.25;;;18.30;99.90;;;;;;5053707;28;20079;-83
2021/08/31 10:20:49;;;;;;;9.90;4.80;;;18.20;99.90;;;;;;5053421;28;20155;-83
2021/08/31 10:23:18;;;;;;;6.30;4.18;;;18.20;99.90;;;;;;5053601;28;20125;-83
2021/08/31 10:25:47;;;;;;;7.30;5.13;;;18.20;99.90;;;;;;5053284;28;20052;-83
2021/08/31 10:28:29;;;;;;;7.82;5.30;;;18.10;99.90;;;;;;5053224;28;20052;-84
2021/08/31 10:30:57;;;;;;;9.85;4.90;;;18.00;99.90;;;;;;5053361;28;20136;-84
2021/08/31 10:33:39;;;;;;;6.80;4.72;;;18.00;99.90;;;;;;5053060;28;20055;-83
2021/08/31 10:36:09;;;;;;;7.72;4.88;;;17.90;99.90;;;;;;5053192;28;20044;-83
2021/08/31 10:38:54;;;;;;;7.72;4.18;;;17.80;99.90;;;;;;5052660;28;20049;-83
2021/08/31 10:41:47;;;;;;;7.88;4.40;;;17.70;99.90;;;;;;5052724;28;20048;-84
2021/08/31 10:44:41;;;;;;;6.00;3.92;;;17.70;99.90;;;;;;5053016;28;20045;-83
2021/08/31 10:47:21;;;;;;;7.68;4.32;;;17.70;99.90;;;;;;5053023;28;20063;-83
2021/08/31 10:50:20;;;;;;;6.10;3.65;;;17.70;99.90;;;;;;5052905;28;20045;-83
2021/08/31 10:53:04;;;;;;;7.50;4.40;;;17.70;99.90;;;;;;5052671;28;20167;-82
2021/08/31 10:55:46;;;;;;;6.85;4.63;;;17.70;99.90;;;;;;5052841;28;20057;-83
2021/08/31 10:58:42;;;;;;;7.25;4.25;;;17.70;99.90;;;;;;5055291;28;20136;-83
2021/08/31 11:01:15;;;;;;;6.05;4.32;;;17.70;99.90;;;;;;5054874;28;20099;-82
2021/08/31 11:03:43;;;;;;;7.22;4.30;;;17.80;99.90;;;;;;5055140;28;20072;-84
2021/08/31 11:06:34;;;;;;;7.03;4.40;;;17.80;99.90;;;;;;5055105;28;20045;-83
2021/08/31 11:09:19;;;;;;;6.38;4.40;;;17.80;99.90;;;;;;5054892;28;20045;-83
2021/08/31 11:12:12;;;;;;;7.07;4.53;;;17.80;99.90;;;;;;5054763;28;20060;-83
2021/08/31 11:14:52;;;;;;;7.05;4.72;;;17.90;99.90;;;;;;5054927;28;20127;-83
2021/08/31 11:17:36;;;;;;;7.45;4.07;;;17.90;99.90;;;;;;5054830;28;20049;-83
2021/08/31 11:20:19;;;;;;;6.57;4.53;;;17.90;99.90;;;;;;5054575;28;20402;-83
2021/08/31 11:22:49;;;;;;;6.70;4.40;;;18.00;99.90;;;;;;5054793;28;20123;-83
2021/08/31 11:25:17;;;;;;;6.70;4.30;;;18.00;99.90;;;;;;5054461;28;20049;-83
2021/08/31 11:27:57;;;;;;;6.75;4.47;;;18.00;99.90;;;;;;5054625;28;20059;-83
2021/08/31 11:30:27;;;;;;;7.47;4.70;;;18.10;99.90;;;;;;5054339;28;20392;-83
2021/08/31 11:33:21;;;;;;;6.85;4.60;;;18.10;99.90;;;;;;5054407;28;20516;-83
2021/08/31 11:35:48;;;;;;;;;;;18.10;99.90;;;;;;5049804;28;20049;-83
2021/08/31 11:38:16;;;;;;;6.13;3.92;;;18.20;99.90;;;;;;5054092;28;20361;-83
2021/08/31 11:40:43;;;;;;;6.28;3.92;;;18.20;99.90;;;;;;5054307;28;20044;-83
2021/08/31 11:43:10;;;;;;;6.05;3.53;;;18.30;99.90;;;;;;5054553;28;20061;-83
2021/08/31 11:45:41;;;;;;;5.90;3.63;;;18.30;99.90;;;;;;5054335;28;20045;-84
2021/08/31 11:48:09;;;;;;;6.18;4.00;;;18.30;99.90;;;;;;5054316;28;20128;-85
2021/08/31 11:50:38;;;;;;;6.20;4.10;;;18.40;99.90;;;;;;5054051;28;20482;-84
2021/08/31 11:53:17;;;;;;;6.35;4.03;;;18.50;99.90;;;;;;5053290;28;20040;-84
2021/08/31 11:55:44;;;;;;;6.70;3.85;;;18.50;99.90;;;;;;5054312;28;20041;-84
2021/08/31 11:58:11;;;;;;;5.35;3.47;;;18.60;99.90;;;;;;5053855;28;20040;-84
2021/08/31 12:00:45;;;;;;;4.50;3.03;;;18.70;99.90;;;;;;5053919;28;20041;-84
2021/08/31 12:03:24;;;;;;;4.97;3.30;;;18.80;99.90;;;;;;5054007;28;20049;-84
2021/08/31 12:05:57;;;;;;;4.53;3.05;;;18.90;99.60;;;;;;5053674;28;20313;-84
2021/08/31 12:08:27;;;;;;;5.47;3.25;;;19.00;99.60;;;;;;5054113;28;20132;-83
2021/08/31 12:10:55;;;;;;;5.22;3.67;;;19.10;99.20;;;;;;5053884;28;20049;-83
2021/08/31 12:13:24;;;;;;;5.30;3.45;;;19.20;98.60;;;;;;5053664;28;20466;-84
2021/08/31 12:15:57;;;;;;;6.38;3.85;;;19.30;98.00;;;;;;5053594;28;20055;-83
2021/08/31 12:18:27;;;;;;;5.80;3.58;;;19.50;97.40;;;;;;5053579;28;20056;-84
2021/08/31 12:21:13;;;;;;;7.22;3.45;;;19.50;97.10;;;;;;5053721;28;20067;-84
2021/08/31 12:23:40;;;;;;;5.82;3.85;;;19.60;97.30;;;;;;5053435;28;20136;-84
2021/08/31 12:26:08;;;;;;;7.32;3.50;;;19.70;97.00;;;;;;5053688;28;20080;-83
2021/08/31 12:28:35;;;;;;;5.68;3.40;;;19.80;97.20;;;;;;5053445;28;20052;-83
2021/08/31 12:31:12;;;;;;;5.38;3.55;;;20.00;97.10;;;;;;5052869;28;20482;-80
2021/08/31 12:33:39;;;;;;;5.20;3.10;;;20.10;96.70;;;;;;5049285;28;20507;-79
2021/08/31 12:36:10;;;;;;;5.03;3.05;;;20.20;96.90;;;;;;5035131;28;20049;-81
2021/08/31 12:38:38;;;;;;;6.22;3.30;;;20.30;96.70;;;;;;5051727;28;20059;-80
2021/08/31 12:41:10;;;;;;;5.05;2.97;;;20.40;95.50;;;;;;5051662;28;20114;-80
2021/08/31 12:43:47;;;;;;;4.40;2.95;;;20.40;95.30;;;;;;5033066;28;20045;-80
2021/08/31 12:46:25;;;;;;;4.30;2.80;;;20.50;95.10;;;;;;5032870;28;20060;-80
2021/08/31 12:49:04;;;;;;;4.80;2.90;;;20.60;94.60;;;;;;5035548;28;20556;-91
2021/08/31 12:51:34;;;;;;;4.63;2.97;;;20.70;94.00;;;;;;5054003;28;20481;-89